Time;durP1;ratioP1;P1;durP2;ratioP2;P2;SDS_P1;SDS_P2;PMS_P1;PMS_P2;Temp;Humidity;BMP_temperature;BMP_pressure;BME280_temperature;BME280_humidity;BME280_pressure;Samples;Min_cycle;Max_cycle;Signal;HPM_P1;HPM_P2
2022/09/14 00:00:56;;;;;;;8.98;8.48;;;;;;;20.14;70.97;100724.66;4997640;28;102279;-55
2022/09/14 00:03:23;;;;;;;8.57;8.07;;;;;;;20.14;71.15;100727.44;4997293;28;102253;-55
2022/09/14 00:05:50;;;;;;;9.10;8.47;;;;;;;20.13;71.20;100729.38;4996907;28;103837;-55
2022/09/14 00:08:17;;;;;;;8.73;8.20;;;;;;;20.14;70.96;100730.19;5002847;28;102175;-55
2022/09/14 00:10:45;;;;;;;9.77;9.18;;;;;;;20.14;71.11;100721.91;5016365;28;102455;-55
2022/09/14 00:13:14;;;;;;;7.65;7.22;;;;;;;20.13;71.05;100723.06;5018629;28;102089;-55
2022/09/14 00:15:45;;;;;;;9.48;8.98;;;;;;;20.13;71.10;100712.00;5009888;28;104537;-55
2022/09/14 00:18:11;;;;;;;8.23;7.55;;;;;;;20.13;71.10;100706.47;4997444;28;102356;-55
2022/09/14 00:20:39;;;;;;;8.82;8.23;;;;;;;20.12;70.94;100704.84;4997122;28;102135;-55
2022/09/14 00:23:06;;;;;;;9.40;8.90;;;;;;;20.12;71.28;100707.59;4997770;28;102357;-56
2022/09/14 00:25:33;;;;;;;9.80;8.80;;;;;;;20.12;71.20;100710.38;4996154;28;104184;-55
2022/09/14 00:28:00;;;;;;;9.40;8.90;;;;;;;20.12;71.11;100715.88;5005398;28;102133;-56
2022/09/14 00:30:27;;;;;;;8.63;8.13;;;;;;;20.12;71.04;100718.66;5015858;28;102470;-55
2022/09/14 00:32:53;;;;;;;8.52;8.02;;;;;;;20.12;71.15;100721.41;5015513;28;102315;-55
2022/09/14 00:35:19;;;;;;;7.82;7.43;;;;;;;20.12;71.10;100732.47;5016587;28;103960;-55
2022/09/14 00:37:50;;;;;;;9.25;8.75;;;;;;;20.12;71.02;100726.94;5016306;28;102340;-56
2022/09/14 00:40:18;;;;;;;9.30;8.80;;;;;;;20.11;71.29;100726.13;5005711;28;102289;-56
2022/09/14 00:42:44;;;;;;;9.23;8.75;;;;;;;20.12;71.00;100718.66;5008101;28;102523;-56
2022/09/14 00:45:15;;;;;;;9.55;9.05;;;;;;;20.11;71.26;100720.63;5016554;28;104109;-56
2022/09/14 00:47:42;;;;;;;9.02;8.52;;;;;;;20.12;71.25;100724.19;5016581;28;102349;-55
2022/09/14 00:50:09;;;;;;;8.63;8.13;;;;;;;20.11;71.12;100723.38;5004626;28;101972;-56
2022/09/14 00:52:40;;;;;;;9.45;8.95;;;;;;;20.11;71.08;100719.81;4997267;28;102167;-55
2022/09/14 00:55:12;;;;;;;9.07;8.57;;;;;;;20.11;71.07;100730.84;4995218;28;103958;-56
2022/09/14 00:57:43;;;;;;;8.07;7.68;;;;;;;20.10;70.98;100719.00;5007551;28;102102;-56
2022/09/14 01:00:13;;;;;;;9.00;8.55;;;;;;;20.10;71.08;100726.50;5014314;28;102348;-55
2022/09/14 01:02:40;;;;;;;9.32;8.73;;;;;;;20.11;71.12;100719.81;5000976;28;102281;-56
2022/09/14 01:05:09;;;;;;;9.23;8.73;;;;;;;20.10;71.28;100718.19;5009892;28;104787;-55
2022/09/14 01:07:48;;;;;;;;;;;;;;;20.10;71.06;100716.25;4996659;28;102450;-55
2022/09/14 01:10:24;;;;;;;;;;;;;;;20.11;71.03;100717.03;4996435;28;102444;-55
2022/09/14 01:13:04;;;;;;;6.03;5.72;;;;;;;20.10;70.95;100726.50;5017390;28;102233;-53
2022/09/14 01:15:41;;;;;;;8.82;8.32;;;;;;;20.10;71.12;100715.44;5016135;28;103873;-55
2022/09/14 01:18:15;;;;;;;7.63;7.22;;;;;;;20.10;71.00;100720.97;5025226;27;103709;-56
2022/09/14 01:20:47;;;;;;;9.05;8.55;;;;;;;20.09;71.17;100722.91;4996313;28;102277;-55
2022/09/14 01:23:21;;;;;;;7.95;7.55;;;;;;;20.10;71.16;100718.19;4997307;28;102721;-56
2022/09/14 01:26:20;;;;;;;8.63;8.13;;;;;;;20.09;71.13;100711.06;5006766;28;104120;-56
2022/09/14 01:28:50;;;;;;;;;;;;;;;20.10;71.10;100712.66;4963339;28;102122;-55
2022/09/14 01:31:24;;;;;;;6.78;6.43;;;;;;;20.10;71.33;100712.66;5004159;28;102265;-55
2022/09/14 01:33:58;;;;;;;8.35;7.85;;;;;;;20.09;71.16;100708.31;5016592;28;103510;-55
2022/09/14 01:36:27;;;;;;;7.70;7.30;;;;;;;20.09;71.10;100700.00;5010526;28;104010;-56
2022/09/14 01:38:54;;;;;;;8.93;8.48;;;;;;;20.09;71.21;100700.00;5015403;28;102367;-55
2022/09/14 01:41:28;;;;;;;9.07;8.57;;;;;;;20.09;71.31;100702.78;5015666;28;102634;-55
2022/09/14 01:44:03;;;;;;;8.20;7.80;;;;;;;20.09;71.30;100700.00;5014696;28;102289;-56
2022/09/14 01:46:38;;;;;;;8.90;8.43;;;;;;;20.09;71.17;100700.00;4993255;28;103874;-56
2022/09/14 01:49:10;;;;;;;8.65;8.18;;;;;;;20.09;71.24;100694.50;4976482;28;102291;-56
2022/09/14 01:51:46;;;;;;;8.50;8.05;;;;;;;20.08;71.26;100706.66;5004021;28;102393;-55
2022/09/14 01:54:18;;;;;;;8.60;8.13;;;;;;;20.09;71.26;100702.78;4994416;28;101991;-56
2022/09/14 01:56:50;;;;;;;7.95;7.55;;;;;;;20.08;71.08;100712.19;4976408;28;104130;-55
2022/09/14 01:59:21;;;;;;;9.15;8.65;;;;;;;20.08;71.19;100710.22;4999596;28;102392;-55
2022/09/14 02:01:52;;;;;;;8.65;8.15;;;;;;;20.08;71.19;100717.72;5011867;28;102920;-55
2022/09/14 02:04:26;;;;;;;8.57;8.18;;;;;;;20.07;71.31;100716.09;5016378;28;102192;-56
2022/09/14 02:06:55;;;;;;;8.82;8.35;;;;;;;20.07;71.32;100719.66;5015108;28;103938;-55
2022/09/14 02:09:25;;;;;;;9.03;8.53;;;;;;;20.06;71.24;100717.25;5014718;28;102460;-55
2022/09/14 02:11:54;;;;;;;8.77;8.38;;;;;;;20.07;71.02;100724.38;5014486;27;102001;-55
2022/09/14 02:14:22;;;;;;;8.03;7.63;;;;;;;20.06;71.21;100725.53;5016242;28;102224;-56
2022/09/14 02:16:49;;;;;;;7.97;7.57;;;;;;;20.06;71.25;100723.59;5005811;28;103939;-55
2022/09/14 02:19:16;;;;;;;9.35;8.85;;;;;;;20.06;71.22;100722.78;4995675;28;103718;-56
2022/09/14 02:21:42;;;;;;;8.95;8.45;;;;;;;20.06;71.28;100722.78;4993910;28;102744;-56
2022/09/14 02:24:10;;;;;;;8.20;7.80;;;;;;;20.06;71.23;100712.53;4995720;28;102889;-54
2022/09/14 02:26:38;;;;;;;8.40;8.00;;;;;;;20.06;71.22;100722.78;4994427;28;103843;-56
2022/09/14 02:29:04;;;;;;;9.27;8.77;;;;;;;20.06;71.26;100728.31;4995430;28;102329;-56
2022/09/14 02:31:45;;;;;;;8.55;8.13;;;;;;;20.07;71.25;100729.91;4994718;28;102073;-55
2022/09/14 02:34:27;;;;;;;9.32;8.82;;;;;;;20.07;71.03;100732.69;4989075;28;102280;-56
2022/09/14 02:37:00;;;;;;;8.65;8.20;;;;;;;20.07;71.28;100724.38;4993978;28;103813;-55
2022/09/14 02:39:35;;;;;;;8.48;8.07;;;;;;;20.06;71.32;100723.59;5011022;28;102024;-56
2022/09/14 02:42:13;;;;;;;8.82;8.38;;;;;;;20.06;71.33;100734.63;5011573;28;102650;-56
2022/09/14 02:44:44;;;;;;;8.35;7.90;;;;;;;20.06;71.33;100733.81;5016319;28;102155;-55
2022/09/14 02:47:16;;;;;;;8.07;7.68;;;;;;;20.06;71.30;100739.34;4994454;28;108054;-55
2022/09/14 02:49:50;;;;;;;9.20;8.70;;;;;;;20.06;71.17;100742.13;5013251;28;102433;-55
2022/09/14 02:52:22;;;;;;;6.97;6.68;;;;;;;20.06;71.32;100742.13;4994998;28;102013;-55
2022/09/14 02:54:56;;;;;;;8.43;7.95;;;;;;;20.06;71.03;100745.69;4998447;28;102645;-55
2022/09/14 02:57:22;;;;;;;8.85;8.43;;;;;;;20.05;71.22;100744.06;5011958;28;104122;-55
2022/09/14 02:59:49;;;;;;;8.55;8.10;;;;;;;20.05;71.26;100746.00;5013732;28;102186;-55
2022/09/14 03:02:16;;;;;;;8.32;7.93;;;;;;;20.05;71.32;100743.25;5013060;28;102354;-55
2022/09/14 03:04:43;;;;;;;8.02;7.63;;;;;;;20.05;71.37;100737.72;4998012;28;102461;-55
2022/09/14 03:07:09;;;;;;;8.50;8.02;;;;;;;20.04;71.24;100734.16;4994340;28;104247;-55
2022/09/14 03:09:36;;;;;;;8.70;8.30;;;;;;;20.04;71.14;100730.56;4995071;28;104028;-55
2022/09/14 03:12:03;;;;;;;7.65;7.25;;;;;;;20.04;71.10;100722.28;4993985;28;102108;-55
2022/09/14 03:14:30;;;;;;;8.05;7.63;;;;;;;20.04;71.24;100725.06;5002520;28;102443;-55
2022/09/14 03:16:56;;;;;;;8.63;8.23;;;;;;;20.04;71.25;100716.75;5007384;28;104127;-55
2022/09/14 03:19:24;;;;;;;8.07;7.68;;;;;;;20.03;71.28;100712.41;4993675;28;102538;-56
2022/09/14 03:21:51;;;;;;;7.28;6.88;;;;;;;20.02;71.08;100710.78;5002259;28;102273;-56
2022/09/14 03:24:17;;;;;;;8.82;8.35;;;;;;;20.04;71.11;100714.00;5014785;27;102288;-55
2022/09/14 03:26:45;;;;;;;8.35;7.90;;;;;;;20.02;71.18;100713.56;5014032;28;103982;-55
2022/09/14 03:29:11;;;;;;;7.70;7.25;;;;;;;20.04;71.35;100712.03;5011567;28;101997;-56
2022/09/14 03:31:38;;;;;;;8.50;8.10;;;;;;;20.03;71.18;100717.91;5011215;28;102297;-55
2022/09/14 03:34:05;;;;;;;9.23;8.73;;;;;;;20.04;71.21;100727.81;5002971;28;102697;-56
2022/09/14 03:36:33;;;;;;;7.35;6.95;;;;;;;20.03;71.20;100728.97;5004083;28;103926;-56
2022/09/14 03:39:00;;;;;;;8.73;8.27;;;;;;;20.03;71.22;100727.00;4993036;28;102659;-56
2022/09/14 03:41:28;;;;;;;8.00;7.60;;;;;;;20.04;71.28;100736.09;5003798;28;102326;-55
2022/09/14 03:43:54;;;;;;;8.45;8.05;;;;;;;20.04;71.12;100730.56;4996650;28;102211;-56
2022/09/14 03:46:22;;;;;;;8.52;8.02;;;;;;;20.03;71.09;100723.44;4992990;28;104057;-56
2022/09/14 03:48:49;;;;;;;9.25;8.75;;;;;;;20.02;71.05;100721.84;5005299;28;102041;-58
2022/09/14 03:51:16;;;;;;;8.35;7.93;;;;;;;20.01;71.32;100721.00;5014276;28;102448;-56
2022/09/14 03:53:45;;;;;;;7.32;6.93;;;;;;;20.01;71.22;100725.72;5014434;28;102277;-55
2022/09/14 03:56:14;;;;;;;8.88;8.43;;;;;;;20.02;71.38;100730.94;4993840;28;103985;-55
2022/09/14 03:58:41;;;;;;;8.65;8.25;;;;;;;20.02;71.26;100732.88;4994614;28;102378;-56
2022/09/14 04:01:11;;;;;;;7.97;7.55;;;;;;;20.02;71.36;100743.94;5005666;28;101947;-56
2022/09/14 04:03:38;;;;;;;8.50;8.10;;;;;;;20.02;71.31;100738.41;5015153;28;102285;-55
2022/09/14 04:06:06;;;;;;;8.85;8.40;;;;;;;20.01;71.25;100743.09;5013166;28;103945;-55
2022/09/14 04:08:34;;;;;;;8.00;7.60;;;;;;;20.02;71.44;100752.22;5014031;28;103223;-56
2022/09/14 04:11:06;;;;;;;8.27;7.88;;;;;;;20.01;71.34;100750.56;5014673;28;102564;-55
2022/09/14 04:13:33;;;;;;;8.70;8.25;;;;;;;20.01;71.17;100758.88;5016436;28;102661;-55
2022/09/14 04:16:00;;;;;;;8.55;8.15;;;;;;;20.01;71.30;100756.91;5012208;28;103812;-55
2022/09/14 04:18:27;;;;;;;8.85;8.35;;;;;;;20.01;71.21;100764.38;5016517;28;102637;-56
2022/09/14 04:20:55;;;;;;;8.52;8.13;;;;;;;20.00;71.34;100757.25;5015549;28;102619;-55
2022/09/14 04:23:22;;;;;;;8.80;8.30;;;;;;;20.01;71.33;100758.88;5016813;28;102581;-56
2022/09/14 04:25:48;;;;;;;8.77;8.27;;;;;;;20.00;71.33;100748.97;5015095;28;104199;-56
2022/09/14 04:28:16;;;;;;;9.63;9.13;;;;;;;20.00;71.38;100751.72;5015858;28;102324;-56
2022/09/14 04:30:42;;;;;;;8.55;8.15;;;;;;;20.00;71.20;100755.31;5016004;28;102423;-56
2022/09/14 04:33:09;;;;;;;8.90;8.45;;;;;;;20.01;71.20;100758.88;5016059;28;102427;-56
2022/09/14 04:35:36;;;;;;;9.93;9.43;;;;;;;20.01;71.36;100767.97;5014464;27;103997;-55
2022/09/14 04:38:03;;;;;;;9.15;8.65;;;;;;;20.00;71.33;100771.06;5016588;28;102281;-55
2022/09/14 04:40:30;;;;;;;10.25;9.65;;;;;;;20.01;71.37;100769.91;5013842;28;102061;-55
2022/09/14 04:42:56;;;;;;;8.55;8.15;;;;;;;20.01;71.38;100767.16;5016266;28;102747;-55
2022/09/14 04:45:25;;;;;;;8.10;7.70;;;;;;;20.01;71.54;100764.38;5016069;27;104161;-55
2022/09/14 04:47:52;;;;;;;;;;;;;;;20.01;71.35;100759.69;5016713;28;101969;-56
2022/09/14 04:50:19;;;;;;;6.70;6.32;;;;;;;20.00;71.55;100758.06;5014974;28;102301;-55
2022/09/14 04:52:45;;;;;;;8.32;7.93;;;;;;;20.01;71.45;100769.91;5016097;28;102356;-56
2022/09/14 04:55:11;;;;;;;8.07;7.60;;;;;;;20.03;71.70;100767.66;5015086;28;108667;-54
2022/09/14 04:57:39;;;;;;;8.15;7.75;;;;;;;20.02;71.46;100760.50;5015519;28;102547;-54
2022/09/14 05:00:06;;;;;;;8.30;7.80;;;;;;;20.03;71.57;100764.88;5014730;28;102337;-55
2022/09/14 05:02:38;;;;;;;7.33;6.90;;;;;;;20.03;71.40;100767.66;5014124;28;102762;-55
2022/09/14 05:05:05;;;;;;;7.82;7.32;;;;;;;20.02;71.46;100760.50;5009593;28;103897;-55
2022/09/14 05:07:35;;;;;;;8.40;7.90;;;;;;;20.04;71.39;100758.19;4994075;28;102050;-56
2022/09/14 05:10:01;;;;;;;8.50;8.10;;;;;;;20.05;71.77;100759.81;5013174;28;102289;-55
2022/09/14 05:12:28;;;;;;;7.70;7.30;;;;;;;20.06;71.93;100762.25;5014315;28;102557;-55
2022/09/14 05:14:55;;;;;;;8.13;7.72;;;;;;;20.06;72.17;100766.97;5011986;28;103965;-55
2022/09/14 05:17:22;;;;;;;9.27;8.73;;;;;;;20.06;72.07;100762.25;5010746;28;102315;-55
2022/09/14 05:19:49;;;;;;;9.25;8.75;;;;;;;20.07;72.08;100763.06;5014270;28;102003;-55
2022/09/14 05:22:16;;;;;;;8.80;8.30;;;;;;;20.09;71.90;100763.56;5009586;28;102053;-54
2022/09/14 05:24:42;;;;;;;9.77;9.18;;;;;;;20.10;72.00;100768.72;5014815;28;104003;-55
2022/09/14 05:27:09;;;;;;;9.55;9.05;;;;;;;20.11;71.89;100766.78;5013651;28;102264;-54
2022/09/14 05:29:38;;;;;;;10.18;9.57;;;;;;;20.13;71.86;100768.06;5014855;28;102648;-54
2022/09/14 05:32:04;;;;;;;;;;;;;;;20.14;71.77;100763.34;5009756;28;102958;-55
2022/09/14 05:34:31;;;;;;;8.77;8.07;;;;;;;20.17;71.97;100770.97;5015356;28;104033;-54
2022/09/14 05:36:59;;;;;;;10.00;9.50;;;;;;;20.17;72.13;100755.19;5009846;28;102448;-54
2022/09/14 05:39:25;;;;;;;9.10;8.50;;;;;;;20.20;71.94;100758.44;5009553;28;102388;-54
2022/09/14 05:41:52;;;;;;;10.43;9.82;;;;;;;20.20;71.71;100767.53;5016874;28;102387;-55
2022/09/14 05:44:18;;;;;;;9.25;8.75;;;;;;;20.20;71.62;100763.97;5014148;28;103934;-54
2022/09/14 05:46:45;;;;;;;8.98;8.48;;;;;;;20.20;71.75;100766.75;5017108;28;101932;-54
2022/09/14 05:49:11;;;;;;;8.82;8.35;;;;;;;20.20;71.40;100767.53;5016805;28;102370;-55
2022/09/14 05:51:38;;;;;;;9.10;8.60;;;;;;;20.20;71.60;100770.31;5015132;28;102366;-55
2022/09/14 05:54:10;;;;;;;9.32;8.82;;;;;;;20.20;71.41;100772.25;4984467;28;104278;-55
2022/09/14 05:56:37;;;;;;;10.23;9.63;;;;;;;20.19;71.13;100765.91;4997487;28;101950;-54
2022/09/14 05:59:04;;;;;;;9.50;9.00;;;;;;;20.20;70.89;100773.06;5004137;28;102569;-55
2022/09/14 06:01:31;;;;;;;9.48;8.98;;;;;;;20.21;70.98;100769.16;5000122;28;102736;-55
2022/09/14 06:04:01;;;;;;;9.23;8.63;;;;;;;20.21;71.18;100763.63;4993836;28;103926;-54
2022/09/14 06:06:29;;;;;;;9.73;9.10;;;;;;;20.23;70.95;100777.94;5007215;28;102274;-55
2022/09/14 06:08:56;;;;;;;9.33;8.77;;;;;;;20.24;70.97;100778.72;5015194;28;104344;-55
2022/09/14 06:11:25;;;;;;;8.82;8.32;;;;;;;20.23;71.05;100777.94;5017019;28;102376;-55
2022/09/14 06:13:53;;;;;;;9.27;8.75;;;;;;;20.25;71.13;100781.16;5016432;28;104002;-55
2022/09/14 06:16:21;;;;;;;9.27;8.77;;;;;;;20.25;71.01;100786.69;5016360;28;102130;-54
2022/09/14 06:18:50;;;;;;;8.90;8.40;;;;;;;20.26;71.03;100782.75;5016123;28;102245;-54
2022/09/14 06:21:19;;;;;;;9.10;8.60;;;;;;;20.26;70.98;100782.75;5017652;28;102319;-55
2022/09/14 06:23:47;;;;;;;9.23;8.73;;;;;;;20.27;71.00;100784.41;5015783;28;103735;-55
2022/09/14 06:26:15;;;;;;;10.23;9.73;;;;;;;20.29;71.04;100786.81;5016512;28;102299;-54
2022/09/14 06:28:45;;;;;;;9.35;8.85;;;;;;;20.29;71.02;100798.69;5016512;28;102121;-54
2022/09/14 06:31:13;;;;;;;10.07;9.48;;;;;;;20.29;71.06;100787.63;5017265;28;102030;-55
2022/09/14 06:33:43;;;;;;;9.33;8.83;;;;;;;20.30;70.86;100797.56;5015955;28;103885;-55
2022/09/14 06:36:12;;;;;;;9.73;9.15;;;;;;;20.31;70.64;100796.41;5016792;28;102333;-55
2022/09/14 06:38:39;;;;;;;;;;;;;;;20.32;70.82;100788.91;4999109;28;102102;-54
2022/09/14 06:41:07;;;;;;;7.55;7.05;;;;;;;20.33;70.74;100798.81;4996409;28;102143;-55
2022/09/14 06:43:35;;;;;;;7.85;7.45;;;;;;;20.34;70.85;100800.44;4995166;28;104099;-55
2022/09/14 06:46:05;;;;;;;8.00;7.60;;;;;;;20.34;70.89;100795.75;4997108;28;102242;-55
2022/09/14 06:48:34;;;;;;;8.32;7.85;;;;;;;20.37;70.83;100783.97;4995722;28;102544;-54
2022/09/14 06:51:10;;;;;;;9.27;8.77;;;;;;;20.35;70.74;100786.28;5014441;28;102270;-55
2022/09/14 06:53:37;;;;;;;9.27;8.77;;;;;;;20.37;70.76;100795.03;4994701;28;107762;-56
2022/09/14 06:56:03;;;;;;;8.82;8.32;;;;;;;20.38;70.86;100791.16;5014716;28;101945;-54
2022/09/14 06:58:31;;;;;;;10.27;9.68;;;;;;;20.39;70.90;100790.00;4995657;28;101944;-54
2022/09/14 07:01:00;;;;;;;8.50;7.90;;;;;;;20.40;70.76;100788.03;4997037;28;102373;-54
2022/09/14 07:03:29;;;;;;;8.70;8.27;;;;;;;20.42;70.73;100790.47;4998502;28;104047;-54
2022/09/14 07:06:00;;;;;;;9.65;9.15;;;;;;;20.43;70.83;100797.63;4993981;28;104481;-55
2022/09/14 07:08:27;;;;;;;7.65;7.15;;;;;;;20.45;70.88;100795.31;4994760;28;102032;-55
2022/09/14 07:10:57;;;;;;;9.40;8.80;;;;;;;20.45;70.73;100795.31;4996719;28;102307;-55
2022/09/14 07:13:25;;;;;;;9.70;9.20;;;;;;;20.46;70.87;100786.72;5010595;28;104010;-55
2022/09/14 07:15:51;;;;;;;9.50;9.00;;;;;;;20.48;70.89;100800.19;5008992;28;102455;-55
2022/09/14 07:18:18;;;;;;;8.80;8.30;;;;;;;20.50;70.79;100792.41;4998140;28;101953;-55
2022/09/14 07:20:46;;;;;;;9.70;9.20;;;;;;;20.49;70.84;100793.53;4994456;28;102213;-55
2022/09/14 07:23:12;;;;;;;9.65;9.15;;;;;;;20.50;70.49;100793.22;4994579;28;103964;-54
2022/09/14 07:25:39;;;;;;;9.38;8.82;;;;;;;20.52;70.64;100795.63;4989055;28;102652;-55
2022/09/14 07:28:06;;;;;;;9.70;9.20;;;;;;;20.53;70.58;100802.78;4997599;28;102948;-55
2022/09/14 07:30:34;;;;;;;9.45;8.95;;;;;;;20.54;70.70;100809.94;5006474;28;102852;-55
2022/09/14 07:33:01;;;;;;;9.77;9.18;;;;;;;20.55;70.79;100803.25;4991776;28;103858;-55
2022/09/14 07:35:27;;;;;;;9.30;8.80;;;;;;;20.56;70.60;100804.88;4994509;28;102533;-55
2022/09/14 07:37:56;;;;;;;9.57;9.07;;;;;;;20.56;70.52;100802.13;5001208;28;102559;-55
2022/09/14 07:40:23;;;;;;;11.05;10.45;;;;;;;20.57;70.52;100795.44;5004882;28;102236;-55
2022/09/14 07:42:50;;;;;;;10.25;9.73;;;;;;;20.58;70.44;100791.53;4999246;28;103818;-55
2022/09/14 07:45:17;;;;;;;8.75;8.30;;;;;;;20.59;70.38;100793.13;5015936;28;102602;-55
2022/09/14 07:47:43;;;;;;;10.40;9.80;;;;;;;20.59;70.35;100790.38;5006563;28;102773;-56
2022/09/14 07:50:10;;;;;;;10.25;9.65;;;;;;;20.60;70.39;100786.47;4995668;28;102676;-55
2022/09/14 07:52:38;;;;;;;9.68;9.18;;;;;;;20.61;70.30;100777.81;5000125;28;103971;-55
2022/09/14 07:55:07;;;;;;;8.98;8.48;;;;;;;20.61;70.32;100786.13;4996793;28;101951;-55
2022/09/14 07:57:34;;;;;;;9.18;8.68;;;;;;;20.62;70.31;100779.44;4995559;28;104343;-55
2022/09/14 08:00:02;;;;;;;10.25;9.70;;;;;;;20.61;70.08;100777.81;5005836;28;102167;-56
2022/09/14 08:02:29;;;;;;;9.90;9.30;;;;;;;20.60;70.10;100775.41;5003808;28;104093;-55
2022/09/14 08:04:57;;;;;;;9.52;8.80;;;;;;;20.61;70.19;100777.03;4994352;28;102453;-55
2022/09/14 08:07:24;;;;;;;9.07;8.48;;;;;;;20.60;69.94;100772.66;4993596;28;103074;-55
2022/09/14 08:09:50;;;;;;;10.60;9.95;;;;;;;20.61;70.01;100764.00;5004950;28;102139;-54
2022/09/14 08:12:19;;;;;;;9.40;8.90;;;;;;;20.64;70.04;100770.81;5013937;28;104032;-55
2022/09/14 08:14:45;;;;;;;9.82;9.32;;;;;;;20.63;69.77;100764.50;5006833;28;102258;-55
2022/09/14 08:17:12;;;;;;;10.32;9.75;;;;;;;20.66;69.90;100767.72;5014599;28;102410;-55
2022/09/14 08:19:40;;;;;;;8.73;8.23;;;;;;;20.66;69.79;100762.97;5016046;28;102139;-54
2022/09/14 08:22:06;;;;;;;10.38;9.82;;;;;;;20.67;69.99;100770.16;5015325;28;103906;-55
2022/09/14 08:24:32;;;;;;;9.50;9.00;;;;;;;20.67;69.69;100759.09;5015200;28;103159;-55
2022/09/14 08:26:59;;;;;;;9.55;9.05;;;;;;;20.68;69.81;100763.47;5013901;28;102372;-55
2022/09/14 08:29:27;;;;;;;9.15;8.65;;;;;;;20.67;69.89;100761.84;5017162;28;102583;-55
2022/09/14 08:31:53;;;;;;;9.53;9.03;;;;;;;20.67;69.73;100756.31;5017001;28;103883;-55
2022/09/14 08:34:20;;;;;;;8.95;8.45;;;;;;;20.67;69.77;100764.63;5016325;28;102435;-55
2022/09/14 08:36:46;;;;;;;8.32;7.72;;;;;;;20.68;69.51;100766.22;5016891;28;102621;-55
2022/09/14 08:39:15;;;;;;;9.27;8.77;;;;;;;20.69;69.50;100761.50;5017258;28;102338;-55
2022/09/14 08:41:49;;;;;;;9.63;9.02;;;;;;;20.69;69.68;100756.78;5016690;28;103971;-55
2022/09/14 08:44:19;;;;;;;10.35;9.75;;;;;;;20.69;69.66;100755.97;5001766;28;102313;-55
2022/09/14 08:46:52;;;;;;;9.70;9.15;;;;;;;20.70;69.53;100757.59;5010785;28;102111;-55
2022/09/14 08:49:22;;;;;;;9.52;9.00;;;;;;;20.71;69.50;100759.22;4998749;28;102597;-55
2022/09/14 08:51:49;;;;;;;8.65;8.15;;;;;;;20.70;69.34;100747.34;4994352;28;104158;-55
2022/09/14 08:54:17;;;;;;;10.15;9.55;;;;;;;20.71;69.50;100754.50;4997014;28;102547;-55
2022/09/14 08:56:48;;;;;;;9.23;8.68;;;;;;;20.70;69.60;100752.88;4996049;28;102425;-55
2022/09/14 08:59:31;;;;;;;9.95;9.35;;;;;;;20.70;69.49;100747.34;5018278;28;102981;-55
2022/09/14 09:02:17;;;;;;;9.30;8.80;;;;;;;20.70;69.90;100750.13;5010145;28;108947;-54
2022/09/14 09:04:51;;;;;;;8.60;8.00;;;;;;;20.70;69.36;100752.88;4987669;28;102142;-55
2022/09/14 09:07:25;;;;;;;9.02;8.52;;;;;;;20.70;69.53;100736.28;5013299;28;102205;-55
2022/09/14 09:09:55;;;;;;;9.60;9.07;;;;;;;20.70;69.36;100736.28;5005572;27;102287;-54
2022/09/14 09:12:26;;;;;;;9.90;9.40;;;;;;;20.69;69.61;100731.88;5003843;27;103084;-55
2022/09/14 09:14:55;;;;;;;9.32;8.82;;;;;;;20.71;69.63;100735.13;5019075;27;101930;-55
2022/09/14 09:17:28;;;;;;;9.75;8.90;;;;;;;20.71;69.54;100731.56;4997955;28;101985;-55
2022/09/14 09:20:02;;;;;;;9.77;9.18;;;;;;;20.70;69.65;100730.75;5014553;28;102677;-55
2022/09/14 09:22:35;;;;;;;8.82;8.32;;;;;;;20.70;69.74;100721.63;5008129;28;104332;-55
2022/09/14 09:25:05;;;;;;;10.25;9.65;;;;;;;20.70;69.65;100724.41;5002936;28;102247;-55
2022/09/14 09:27:33;;;;;;;10.02;9.52;;;;;;;20.67;69.70;100720.38;5002710;28;101886;-55
2022/09/14 09:30:00;;;;;;;10.57;9.98;;;;;;;20.69;69.71;100718.06;4996984;28;104302;-55
2022/09/14 09:32:28;;;;;;;9.65;8.95;;;;;;;20.68;69.85;100716.44;4994548;28;104000;-55
2022/09/14 09:34:56;;;;;;;9.40;8.88;;;;;;;20.69;69.63;100720.81;4993463;28;102239;-55
2022/09/14 09:37:23;;;;;;;8.68;8.18;;;;;;;20.68;69.71;100721.97;4997484;28;102470;-55
2022/09/14 09:39:50;;;;;;;9.20;8.70;;;;;;;20.68;69.54;100708.16;4996297;28;102486;-55
2022/09/14 09:42:22;;;;;;;9.18;8.68;;;;;;;20.68;69.57;100699.88;5003451;28;103549;-55
2022/09/14 09:44:54;;;;;;;9.43;8.90;;;;;;;20.66;69.48;100702.16;4996432;28;102262;-55
2022/09/14 09:47:27;;;;;;;9.65;9.15;;;;;;;20.67;69.46;100709.31;4993150;28;103918;-55
2022/09/14 09:49:59;;;;;;;9.85;9.23;;;;;;;20.66;69.48;100707.69;4995826;28;102537;-55
2022/09/14 09:52:27;;;;;;;11.05;10.45;;;;;;;20.66;69.28;100702.16;5016029;28;107740;-53
2022/09/14 09:54:56;;;;;;;10.80;10.18;;;;;;;20.65;69.27;100706.06;4997694;28;102255;-55
2022/09/14 09:57:28;;;;;;;8.80;8.30;;;;;;;20.64;69.19;100705.25;4995244;28;101970;-54
2022/09/14 10:00:10;;;;;;;10.25;9.65;;;;;;;20.65;69.42;100703.31;5003966;28;102197;-55
2022/09/14 10:02:37;;;;;;;9.68;9.18;;;;;;;20.63;69.40;100697.31;5001563;28;104248;-55
2022/09/14 10:05:18;;;;;;;8.82;8.32;;;;;;;20.64;69.41;100698.94;4996240;28;102904;-55
2022/09/14 10:07:52;;;;;;;10.35;9.77;;;;;;;20.63;69.71;100702.84;4991385;28;102547;-55
2022/09/14 10:10:25;;;;;;;8.70;8.20;;;;;;;20.61;69.60;100700.41;4989525;28;104410;-55
2022/09/14 10:12:55;;;;;;;9.10;8.60;;;;;;;20.61;69.74;100694.88;4993739;28;104081;-55
2022/09/14 10:15:24;;;;;;;9.23;8.43;;;;;;;20.60;69.93;100695.22;4995451;28;103689;-55
2022/09/14 10:18:06;;;;;;;10.25;9.68;;;;;;;20.59;69.99;100691.66;4995978;28;102256;-54
2022/09/14 10:20:35;;;;;;;10.40;9.80;;;;;;;20.60;69.64;100695.22;5001885;28;102427;-55
2022/09/14 10:23:21;;;;;;;8.50;7.93;;;;;;;20.60;69.70;100692.47;5008643;28;103956;-55
2022/09/14 10:25:50;;;;;;;8.43;8.00;;;;;;;20.58;69.74;100683.69;4997116;28;102386;-55
2022/09/14 10:28:21;;;;;;;8.55;8.05;;;;;;;20.57;69.75;100687.59;4995293;28;102204;-55
2022/09/14 10:30:54;;;;;;;10.20;9.60;;;;;;;20.56;69.58;100681.28;4997101;28;102125;-55
2022/09/14 10:33:21;;;;;;;8.48;7.97;;;;;;;20.56;69.64;100683.25;4992217;28;104058;-55
2022/09/14 10:35:56;;;;;;;9.00;8.50;;;;;;;20.56;69.66;100686.00;4995056;28;102488;-55
2022/09/14 10:38:30;;;;;;;9.25;8.75;;;;;;;20.55;69.71;100693.47;5014318;28;102255;-54
2022/09/14 10:41:08;;;;;;;8.73;8.23;;;;;;;20.55;69.84;100676.06;5005984;28;102081;-55
2022/09/14 10:43:47;;;;;;;9.10;8.50;;;;;;;20.54;69.76;100689.09;4983829;28;103938;-55
2022/09/14 10:46:19;;;;;;;;;;;;;;;20.54;69.60;100677.22;5001593;28;102197;-54
2022/09/14 10:48:58;;;;;;;8.45;7.85;;;;;;;20.53;69.51;100675.63;5008363;28;102549;-55
2022/09/14 10:51:40;;;;;;;8.25;7.75;;;;;;;20.52;69.52;100676.75;5003403;28;102124;-55
2022/09/14 10:54:19;;;;;;;8.25;7.75;;;;;;;20.52;69.42;100682.28;5002804;28;103942;-55
2022/09/14 10:57:01;;;;;;;8.57;8.10;;;;;;;20.51;69.36;100680.66;4997337;28;102488;-55
2022/09/14 10:59:36;;;;;;;8.52;8.02;;;;;;;20.50;69.16;100670.75;4993283;28;102528;-55
2022/09/14 11:02:30;;;;;;;8.68;8.10;;;;;;;20.51;69.34;100666.84;5009976;28;102066;-55
2022/09/14 11:05:20;;;;;;;8.18;7.68;;;;;;;20.50;69.53;100665.22;5010678;28;107971;-54
2022/09/14 11:08:02;;;;;;;8.50;8.00;;;;;;;20.48;69.35;100673.81;4993980;28;102202;-55
2022/09/14 11:10:37;;;;;;;7.55;7.15;;;;;;;20.49;69.35;100669.13;4992310;28;102446;-55
2022/09/14 11:13:33;;;;;;;8.60;8.00;;;;;;;20.48;69.39;100657.22;4995324;28;102498;-55
2022/09/14 11:16:08;;;;;;;7.45;7.00;;;;;;;20.48;69.15;100661.97;4999185;28;104124;-54
2022/09/14 11:18:44;;;;;;;7.97;7.47;;;;;;;20.48;69.45;100651.69;4996051;28;102807;-55
2022/09/14 11:21:19;;;;;;;9.10;8.60;;;;;;;20.47;69.30;100650.09;5012235;28;102523;-55
2022/09/14 11:23:51;;;;;;;9.57;8.93;;;;;;;20.45;69.02;100644.13;5018054;28;102796;-55
2022/09/14 11:26:24;;;;;;;8.45;7.85;;;;;;;20.47;68.86;100652.06;5017739;28;103944;-56
2022/09/14 11:28:52;;;;;;;8.27;7.78;;;;;;;20.47;68.96;100652.06;5013906;28;102120;-55